Scroll down
FLIGHT INFORMATION
Aeroméxico

AMX2201

At Arrival Gate

MMMX
 MGGT
DATE: 2020-07-21
GATE: 11
GATE DEPARTURE: 22:19
TAKEOFF: 22:30
DATE: 2020-07-22
GATE:  -
LANDING: 00:05
GATE ARRIVAL: 00:09
FLIGHT DATA
Speed: 
473 kts
Altitude: 
30,998 ft
Stage Length: 
570.4 nm
Block Time: 
1.8 hrs
Flight Time: 
1.6 hrs
Fuel Used: 
10,062 lb
Cleared Route: MMMX APN ALMET TEVET VER MTT URVOD TGZ GABEN OMISO KALPA MGGT
TRACK DATA
50,000 ft 1,000 kts
AIRCRAFT INFO AND CUMULATIVE STATS
Aircraft Type: 
B737BW
Registration: 
SELCAL: 
NULL
MSN/LN: 
35117 / 2122
Operator: 
Total Flights: 
1
Total Block Time: 
1.7 hrs
Total Flight Time: 
1.6 hrs
Total Fuel Time: 
10,062 lb
DATALINK LOG | Newest first | Current as of: 2020-11-25 18:45:30
LABEL SEQUENCE CONTENT Dn/Up
QD561800:09 11.9▼ Dn
QC521400:05▼ Dn
5U4739MGGT 210531Z 02008KT 9999 SCT014 21/17 Q1023▲ Up
5S3257MGGT▼ Dn
UM1062661MAINTAIN MACH 0.65▲ Up
DM182651REQUEST M0.65▼ Dn
2S2856MGGT▼ Dn
2S2351MGGT▼ Dn
QB164222:30▼ Dn
QA053222:19 22.1▼ Dn
A35531CLEARED TO MGGT VIA APN5B APN V22 VER MTT UA552 TGZ GABEN A552 KALPA. SQUAWK .▲ Up
B35522MMMX MGGT AM2201 A ▼ Dn
Q05118[LINK ACK]▲ Up
Q05118[LINK TEST]▼ Dn


AIRCRAFT HISTORY
FLIGHT DATE FLIGHT NO. ORIGIN DESTINATION CLEARED ROUTE BLOCK TIME FLIGHT TIME FUEL USED PILOT
2020-07-21AMX2201MMMX MGGT MMMX APN ALMET TEVET VER MTT URVOD TGZ GABEN OMISO KALPA MGGT1.8 hrs1.6 hrs10,062 lbRoberto Stopnicki